sensor_id;sensor_type;location;lat;lon;timestamp;P1;durP1;ratioP1;P2;durP2;ratioP2
45388;SDS011;31127;52.078;4.370;2023-03-01T00:00:41;19.10;;;12.00;;
45388;SDS011;31127;52.078;4.370;2023-03-01T00:05:36;17.73;;;11.25;;
45388;SDS011;31127;52.078;4.370;2023-03-01T00:10:31;16.17;;;10.90;;
45388;SDS011;31127;52.078;4.370;2023-03-01T00:15:27;17.42;;;12.07;;
45388;SDS011;31127;52.078;4.370;2023-03-01T00:25:23;23.25;;;12.80;;
45388;SDS011;31127;52.078;4.370;2023-03-01T00:30:19;17.95;;;12.52;;
45388;SDS011;31127;52.078;4.370;2023-03-01T00:53:39;22.85;;;14.63;;
45388;SDS011;31127;52.078;4.370;2023-03-01T01:03:49;25.05;;;14.80;;
45388;SDS011;31127;52.078;4.370;2023-03-01T01:08:44;25.80;;;15.68;;
45388;SDS011;31127;52.078;4.370;2023-03-01T01:18:42;25.83;;;15.48;;
45388;SDS011;31127;52.078;4.370;2023-03-01T01:23:38;29.30;;;16.40;;
45388;SDS011;31127;52.078;4.370;2023-03-01T01:33:37;30.42;;;16.48;;
45388;SDS011;31127;52.078;4.370;2023-03-01T01:38:32;36.97;;;19.17;;
45388;SDS011;31127;52.078;4.370;2023-03-01T01:43:29;32.97;;;19.02;;
45388;SDS011;31127;52.078;4.370;2023-03-01T01:48:27;33.35;;;19.35;;
45388;SDS011;31127;52.078;4.370;2023-03-01T01:53:35;39.22;;;21.58;;
45388;SDS011;31127;52.078;4.370;2023-03-01T02:09:53;32.83;;;19.00;;
45388;SDS011;31127;52.078;4.370;2023-03-01T02:14:48;39.07;;;22.07;;
45388;SDS011;31127;52.078;4.370;2023-03-01T02:29:43;38.88;;;21.70;;
45388;SDS011;31127;52.078;4.370;2023-03-01T02:39:40;47.95;;;23.52;;
45388;SDS011;31127;52.078;4.370;2023-03-01T02:44:37;53.88;;;26.38;;
45388;SDS011;31127;52.078;4.370;2023-03-01T02:49:34;38.80;;;22.50;;
45388;SDS011;31127;52.078;4.370;2023-03-01T02:59:37;54.22;;;26.65;;
45388;SDS011;31127;52.078;4.370;2023-03-01T03:04:35;55.15;;;26.02;;
45388;SDS011;31127;52.078;4.370;2023-03-01T03:15:53;51.70;;;27.40;;
45388;SDS011;31127;52.078;4.370;2023-03-01T03:20:48;56.45;;;28.58;;
45388;SDS011;31127;52.078;4.370;2023-03-01T03:25:48;58.97;;;29.08;;
45388;SDS011;31127;52.078;4.370;2023-03-01T03:30:43;60.17;;;29.50;;
45388;SDS011;31127;52.078;4.370;2023-03-01T03:35:46;59.92;;;29.40;;
45388;SDS011;31127;52.078;4.370;2023-03-01T03:45:43;46.67;;;26.30;;
45388;SDS011;31127;52.078;4.370;2023-03-01T03:50:39;51.20;;;28.17;;
45388;SDS011;31127;52.078;4.370;2023-03-01T04:00:34;55.00;;;28.23;;
45388;SDS011;31127;52.078;4.370;2023-03-01T04:05:30;49.80;;;25.63;;
45388;SDS011;31127;52.078;4.370;2023-03-01T04:10:25;58.72;;;29.80;;
45388;SDS011;31127;52.078;4.370;2023-03-01T04:15:20;51.53;;;27.23;;
45388;SDS011;31127;52.078;4.370;2023-03-01T04:25:29;57.10;;;28.48;;
45388;SDS011;31127;52.078;4.370;2023-03-01T04:30:26;53.47;;;29.17;;
45388;SDS011;31127;52.078;4.370;2023-03-01T04:35:22;51.03;;;27.60;;
45388;SDS011;31127;52.078;4.370;2023-03-01T04:50:59;57.58;;;31.02;;
45388;SDS011;31127;52.078;4.370;2023-03-01T04:55:55;68.25;;;32.47;;
45388;SDS011;31127;52.078;4.370;2023-03-01T05:00:51;65.22;;;31.77;;
45388;SDS011;31127;52.078;4.370;2023-03-01T05:05:48;58.72;;;29.13;;
45388;SDS011;31127;52.078;4.370;2023-03-01T05:15:45;55.15;;;28.58;;
45388;SDS011;31127;52.078;4.370;2023-03-01T05:20:40;58.75;;;29.17;;
45388;SDS011;31127;52.078;4.370;2023-03-01T05:25:36;56.73;;;29.93;;
45388;SDS011;31127;52.078;4.370;2023-03-01T05:30:35;73.10;;;32.58;;
45388;SDS011;31127;52.078;4.370;2023-03-01T05:40:32;72.53;;;34.15;;
45388;SDS011;31127;52.078;4.370;2023-03-01T05:45:28;60.55;;;30.90;;
45388;SDS011;31127;52.078;4.370;2023-03-01T05:50:24;72.28;;;34.50;;
45388;SDS011;31127;52.078;4.370;2023-03-01T05:55:20;72.90;;;34.50;;
45388;SDS011;31127;52.078;4.370;2023-03-01T06:00:17;66.60;;;31.98;;
45388;SDS011;31127;52.078;4.370;2023-03-01T06:05:12;57.42;;;30.38;;
45388;SDS011;31127;52.078;4.370;2023-03-01T06:10:08;64.00;;;31.58;;
45388;SDS011;31127;52.078;4.370;2023-03-01T06:15:04;72.22;;;34.33;;
45388;SDS011;31127;52.078;4.370;2023-03-01T06:20:00;64.88;;;32.45;;
45388;SDS011;31127;52.078;4.370;2023-03-01T06:24:56;66.90;;;31.45;;
45388;SDS011;31127;52.078;4.370;2023-03-01T06:29:51;54.05;;;29.27;;
45388;SDS011;31127;52.078;4.370;2023-03-01T06:39:45;61.83;;;31.77;;
45388;SDS011;31127;52.078;4.370;2023-03-01T06:44:41;54.53;;;26.50;;
45388;SDS011;31127;52.078;4.370;2023-03-01T06:54:40;52.97;;;28.90;;
45388;SDS011;31127;52.078;4.370;2023-03-01T06:59:35;55.03;;;28.13;;
45388;SDS011;31127;52.078;4.370;2023-03-01T07:04:31;64.43;;;32.80;;
45388;SDS011;31127;52.078;4.370;2023-03-01T07:09:26;68.80;;;33.53;;
45388;SDS011;31127;52.078;4.370;2023-03-01T07:14:21;53.23;;;27.80;;
45388;SDS011;31127;52.078;4.370;2023-03-01T07:19:19;55.92;;;29.80;;
45388;SDS011;31127;52.078;4.370;2023-03-01T07:24:15;52.40;;;28.90;;
45388;SDS011;31127;52.078;4.370;2023-03-01T07:29:10;56.58;;;28.27;;
45388;SDS011;31127;52.078;4.370;2023-03-01T07:34:06;53.25;;;27.67;;
45388;SDS011;31127;52.078;4.370;2023-03-01T07:39:01;51.42;;;27.35;;
45388;SDS011;31127;52.078;4.370;2023-03-01T07:54:35;44.78;;;25.92;;
45388;SDS011;31127;52.078;4.370;2023-03-01T07:59:31;48.20;;;26.20;;
45388;SDS011;31127;52.078;4.370;2023-03-01T08:09:27;45.75;;;24.67;;
45388;SDS011;31127;52.078;4.370;2023-03-01T08:14:23;44.65;;;25.02;;
45388;SDS011;31127;52.078;4.370;2023-03-01T08:19:18;44.07;;;24.13;;
45388;SDS011;31127;52.078;4.370;2023-03-01T08:24:14;44.20;;;24.58;;
45388;SDS011;31127;52.078;4.370;2023-03-01T08:29:09;46.47;;;25.60;;
45388;SDS011;31127;52.078;4.370;2023-03-01T08:34:05;42.88;;;25.90;;
45388;SDS011;31127;52.078;4.370;2023-03-01T08:39:01;45.22;;;27.02;;
45388;SDS011;31127;52.078;4.370;2023-03-01T08:43:56;41.03;;;24.48;;
45388;SDS011;31127;52.078;4.370;2023-03-01T08:48:54;48.33;;;26.77;;
45388;SDS011;31127;52.078;4.370;2023-03-01T08:53:50;40.90;;;25.03;;
45388;SDS011;31127;52.078;4.370;2023-03-01T08:58:51;43.25;;;25.60;;
45388;SDS011;31127;52.078;4.370;2023-03-01T09:03:46;45.17;;;24.87;;
45388;SDS011;31127;52.078;4.370;2023-03-01T09:08:43;42.20;;;26.80;;
45388;SDS011;31127;52.078;4.370;2023-03-01T09:13:38;45.88;;;26.95;;
45388;SDS011;31127;52.078;4.370;2023-03-01T09:18:34;39.78;;;25.73;;
45388;SDS011;31127;52.078;4.370;2023-03-01T09:23:30;38.88;;;24.10;;
45388;SDS011;31127;52.078;4.370;2023-03-01T09:28:26;33.20;;;20.43;;
45388;SDS011;31127;52.078;4.370;2023-03-01T09:33:21;27.43;;;18.60;;
45388;SDS011;31127;52.078;4.370;2023-03-01T09:38:36;20.35;;;15.05;;
45388;SDS011;31127;52.078;4.370;2023-03-01T09:48:38;15.77;;;13.57;;
45388;SDS011;31127;52.078;4.370;2023-03-01T10:04:00;13.40;;;11.77;;
45388;SDS011;31127;52.078;4.370;2023-03-01T10:09:00;13.32;;;12.02;;
45388;SDS011;31127;52.078;4.370;2023-03-01T10:14:13;13.48;;;12.07;;
45388;SDS011;31127;52.078;4.370;2023-03-01T10:19:24;11.75;;;10.25;;
45388;SDS011;31127;52.078;4.370;2023-03-01T10:24:22;12.10;;;11.00;;
45388;SDS011;31127;52.078;4.370;2023-03-01T10:29:17;10.83;;;9.87;;
45388;SDS011;31127;52.078;4.370;2023-03-01T10:56:00;8.70;;;7.97;;
45388;SDS011;31127;52.078;4.370;2023-03-01T11:00:57;12.10;;;9.27;;
45388;SDS011;31127;52.078;4.370;2023-03-01T11:16:37;10.20;;;9.20;;
45388;SDS011;31127;52.078;4.370;2023-03-01T11:21:33;10.45;;;9.07;;
45388;SDS011;31127;52.078;4.370;2023-03-01T11:26:29;11.95;;;10.82;;
45388;SDS011;31127;52.078;4.370;2023-03-01T11:38:15;11.23;;;10.13;;
45388;SDS011;31127;52.078;4.370;2023-03-01T11:43:02;9.60;;;8.80;;
45388;SDS011;31127;52.078;4.370;2023-03-01T12:05:28;11.88;;;10.20;;
45388;SDS011;31127;52.078;4.370;2023-03-01T12:09:57;12.02;;;10.93;;
45388;SDS011;31127;52.078;4.370;2023-03-01T12:21:21;14.50;;;12.63;;
45388;SDS011;31127;52.078;4.370;2023-03-01T12:26:35;13.25;;;11.95;;
45388;SDS011;31127;52.078;4.370;2023-03-01T12:41:51;9.32;;;8.43;;
45388;SDS011;31127;52.078;4.370;2023-03-01T12:46:52;10.57;;;9.48;;
45388;SDS011;31127;52.078;4.370;2023-03-01T12:52:11;11.55;;;10.35;;
45388;SDS011;31127;52.078;4.370;2023-03-01T13:02:19;14.63;;;13.10;;
45388;SDS011;31127;52.078;4.370;2023-03-01T13:17:41;14.70;;;13.27;;
45388;SDS011;31127;52.078;4.370;2023-03-01T13:22:38;14.20;;;12.73;;
45388;SDS011;31127;52.078;4.370;2023-03-01T13:38:46;13.65;;;12.13;;
45388;SDS011;31127;52.078;4.370;2023-03-01T13:43:43;13.20;;;11.68;;
45388;SDS011;31127;52.078;4.370;2023-03-01T13:48:38;12.27;;;11.00;;
45388;SDS011;31127;52.078;4.370;2023-03-01T13:53:35;10.70;;;9.55;;
45388;SDS011;31127;52.078;4.370;2023-03-01T13:58:32;13.05;;;9.50;;
45388;SDS011;31127;52.078;4.370;2023-03-01T14:03:28;12.05;;;9.88;;
45388;SDS011;31127;52.078;4.370;2023-03-01T14:08:25;12.05;;;10.63;;
45388;SDS011;31127;52.078;4.370;2023-03-01T14:30:34;13.05;;;10.00;;
45388;SDS011;31127;52.078;4.370;2023-03-01T14:35:31;11.00;;;9.55;;
45388;SDS011;31127;52.078;4.370;2023-03-01T14:40:30;16.45;;;10.55;;
45388;SDS011;31127;52.078;4.370;2023-03-01T14:50:32;16.53;;;10.67;;
45388;SDS011;31127;52.078;4.370;2023-03-01T15:00:27;12.45;;;8.88;;
45388;SDS011;31127;52.078;4.370;2023-03-01T15:05:25;10.75;;;9.52;;
45388;SDS011;31127;52.078;4.370;2023-03-01T15:10:22;9.98;;;8.98;;
45388;SDS011;31127;52.078;4.370;2023-03-01T15:31:20;11.20;;;8.32;;
45388;SDS011;31127;52.078;4.370;2023-03-01T15:36:30;12.02;;;8.90;;
45388;SDS011;31127;52.078;4.370;2023-03-01T15:41:46;13.25;;;9.15;;
45388;SDS011;31127;52.078;4.370;2023-03-01T15:46:46;10.43;;;8.70;;
45388;SDS011;31127;52.078;4.370;2023-03-01T16:15:41;10.63;;;7.70;;
45388;SDS011;31127;52.078;4.370;2023-03-01T16:31:39;10.95;;;7.75;;
45388;SDS011;31127;52.078;4.370;2023-03-01T16:36:35;9.70;;;7.30;;
45388;SDS011;31127;52.078;4.370;2023-03-01T17:17:57;10.98;;;7.68;;
45388;SDS011;31127;52.078;4.370;2023-03-01T17:23:12;10.38;;;7.55;;
45388;SDS011;31127;52.078;4.370;2023-03-01T17:28:08;10.40;;;7.30;;
45388;SDS011;31127;52.078;4.370;2023-03-01T17:33:03;13.13;;;8.18;;
45388;SDS011;31127;52.078;4.370;2023-03-01T17:37:59;11.23;;;7.70;;
45388;SDS011;31127;52.078;4.370;2023-03-01T17:42:54;11.97;;;7.80;;
45388;SDS011;31127;52.078;4.370;2023-03-01T17:47:51;13.05;;;7.75;;
45388;SDS011;31127;52.078;4.370;2023-03-01T17:52:46;13.67;;;7.43;;
45388;SDS011;31127;52.078;4.370;2023-03-01T17:57:42;11.43;;;7.47;;
45388;SDS011;31127;52.078;4.370;2023-03-01T18:02:37;13.80;;;7.70;;
45388;SDS011;31127;52.078;4.370;2023-03-01T18:07:33;10.80;;;7.35;;
45388;SDS011;31127;52.078;4.370;2023-03-01T18:12:29;14.20;;;7.40;;
45388;SDS011;31127;52.078;4.370;2023-03-01T18:17:39;12.18;;;7.82;;
45388;SDS011;31127;52.078;4.370;2023-03-01T18:22:34;10.60;;;7.53;;
45388;SDS011;31127;52.078;4.370;2023-03-01T18:27:29;14.97;;;7.77;;
45388;SDS011;31127;52.078;4.370;2023-03-01T18:37:27;16.33;;;9.02;;
45388;SDS011;31127;52.078;4.370;2023-03-01T18:42:23;10.10;;;6.97;;
45388;SDS011;31127;52.078;4.370;2023-03-01T18:52:19;13.18;;;7.90;;
45388;SDS011;31127;52.078;4.370;2023-03-01T19:02:16;12.75;;;8.70;;
45388;SDS011;31127;52.078;4.370;2023-03-01T19:12:13;12.18;;;8.23;;
45388;SDS011;31127;52.078;4.370;2023-03-01T19:17:08;14.30;;;8.50;;
45388;SDS011;31127;52.078;4.370;2023-03-01T19:39:07;12.65;;;7.60;;
45388;SDS011;31127;52.078;4.370;2023-03-01T19:44:03;14.50;;;8.43;;
45388;SDS011;31127;52.078;4.370;2023-03-01T20:17:40;16.27;;;10.10;;
45388;SDS011;31127;52.078;4.370;2023-03-01T20:22:35;19.13;;;10.05;;
45388;SDS011;31127;52.078;4.370;2023-03-01T20:27:31;17.97;;;10.80;;
45388;SDS011;31127;52.078;4.370;2023-03-01T20:37:27;18.13;;;10.55;;
45388;SDS011;31127;52.078;4.370;2023-03-01T20:42:39;16.63;;;10.48;;
45388;SDS011;31127;52.078;4.370;2023-03-01T21:16:41;22.80;;;12.68;;
45388;SDS011;31127;52.078;4.370;2023-03-01T21:32:48;21.40;;;11.40;;
45388;SDS011;31127;52.078;4.370;2023-03-01T21:37:43;23.98;;;13.32;;
45388;SDS011;31127;52.078;4.370;2023-03-01T21:42:39;23.08;;;13.88;;
45388;SDS011;31127;52.078;4.370;2023-03-01T21:47:36;22.52;;;11.90;;
45388;SDS011;31127;52.078;4.370;2023-03-01T21:52:33;22.33;;;12.43;;
45388;SDS011;31127;52.078;4.370;2023-03-01T21:57:29;23.35;;;13.10;;
45388;SDS011;31127;52.078;4.370;2023-03-01T22:02:24;23.40;;;12.30;;
45388;SDS011;31127;52.078;4.370;2023-03-01T22:07:20;25.63;;;13.38;;
45388;SDS011;31127;52.078;4.370;2023-03-01T22:12:35;21.83;;;11.65;;
45388;SDS011;31127;52.078;4.370;2023-03-01T22:17:31;24.10;;;12.05;;
45388;SDS011;31127;52.078;4.370;2023-03-01T22:27:41;24.60;;;12.00;;
45388;SDS011;31127;52.078;4.370;2023-03-01T22:32:37;23.23;;;12.48;;
45388;SDS011;31127;52.078;4.370;2023-03-01T22:37:32;17.05;;;11.02;;
45388;SDS011;31127;52.078;4.370;2023-03-01T22:42:48;21.98;;;11.98;;
45388;SDS011;31127;52.078;4.370;2023-03-01T22:47:43;18.98;;;11.35;;
45388;SDS011;31127;52.078;4.370;2023-03-01T22:52:39;21.53;;;11.17;;
45388;SDS011;31127;52.078;4.370;2023-03-01T22:57:35;20.50;;;11.60;;
45388;SDS011;31127;52.078;4.370;2023-03-01T23:13:32;23.95;;;12.32;;
45388;SDS011;31127;52.078;4.370;2023-03-01T23:18:28;27.17;;;14.03;;
45388;SDS011;31127;52.078;4.370;2023-03-01T23:23:26;24.90;;;13.67;;
45388;SDS011;31127;52.078;4.370;2023-03-01T23:28:22;27.60;;;14.30;;
45388;SDS011;31127;52.078;4.370;2023-03-01T23:38:20;28.02;;;16.20;;
